sensor_id;sensor_type;location;lat;lon;timestamp;pressure;altitude;pressure_sealevel;temperature;humidity
12349;BME280;5974;42.710;27.258;2023-08-06T00:00:55;98978.00;;;23.98;100.00
12349;BME280;5974;42.710;27.258;2023-08-06T00:03:22;98972.66;;;23.98;100.00
12349;BME280;5974;42.710;27.258;2023-08-06T00:05:49;98985.53;;;23.95;100.00
12349;BME280;5974;42.710;27.258;2023-08-06T00:08:16;98987.56;;;23.93;100.00
12349;BME280;5974;42.710;27.258;2023-08-06T00:10:44;98984.88;;;23.93;100.00
12349;BME280;5974;42.710;27.258;2023-08-06T00:13:11;98982.56;;;23.90;100.00
12349;BME280;5974;42.710;27.258;2023-08-06T00:15:38;98972.78;;;23.74;100.00
12349;BME280;5974;42.710;27.258;2023-08-06T00:18:05;98977.94;;;23.75;100.00
12349;BME280;5974;42.710;27.258;2023-08-06T00:20:31;98967.44;;;23.74;100.00
12349;BME280;5974;42.710;27.258;2023-08-06T00:22:58;98968.63;;;23.71;100.00
12349;BME280;5974;42.710;27.258;2023-08-06T00:25:25;98965.13;;;23.63;100.00
12349;BME280;5974;42.710;27.258;2023-08-06T00:27:53;98963.09;;;23.73;100.00
12349;BME280;5974;42.710;27.258;2023-08-06T00:30:21;98957.63;;;23.66;100.00
12349;BME280;5974;42.710;27.258;2023-08-06T00:32:48;98954.00;;;23.51;100.00
12349;BME280;5974;42.710;27.258;2023-08-06T00:35:15;98941.56;;;23.44;100.00
12349;BME280;5974;42.710;27.258;2023-08-06T00:37:42;98956.88;;;23.50;100.00
12349;BME280;5974;42.710;27.258;2023-08-06T00:40:09;98947.50;;;23.54;100.00
12349;BME280;5974;42.710;27.258;2023-08-06T00:42:36;98956.72;;;23.43;100.00
12349;BME280;5974;42.710;27.258;2023-08-06T00:45:05;98946.69;;;23.45;100.00
12349;BME280;5974;42.710;27.258;2023-08-06T00:47:32;98942.06;;;23.39;100.00
12349;BME280;5974;42.710;27.258;2023-08-06T00:49:59;98939.69;;;23.36;100.00
12349;BME280;5974;42.710;27.258;2023-08-06T00:52:26;98945.41;;;23.25;100.00
12349;BME280;5974;42.710;27.258;2023-08-06T00:54:53;98941.22;;;23.22;100.00
12349;BME280;5974;42.710;27.258;2023-08-06T00:57:21;98913.00;;;22.81;100.00
12349;BME280;5974;42.710;27.258;2023-08-06T00:59:51;98952.31;;;23.03;100.00
12349;BME280;5974;42.710;27.258;2023-08-06T01:02:20;98943.47;;;23.03;100.00
12349;BME280;5974;42.710;27.258;2023-08-06T01:04:46;98932.31;;;22.99;100.00
12349;BME280;5974;42.710;27.258;2023-08-06T01:07:21;98935.66;;;22.93;100.00
12349;BME280;5974;42.710;27.258;2023-08-06T01:09:59;98935.50;;;22.95;100.00
12349;BME280;5974;42.710;27.258;2023-08-06T01:12:37;98929.81;;;22.98;100.00
12349;BME280;5974;42.710;27.258;2023-08-06T01:15:13;98925.81;;;22.94;100.00
12349;BME280;5974;42.710;27.258;2023-08-06T01:17:44;98922.31;;;22.93;100.00
12349;BME280;5974;42.710;27.258;2023-08-06T01:20:11;98906.34;;;22.77;100.00
12349;BME280;5974;42.710;27.258;2023-08-06T01:22:39;98907.16;;;22.94;100.00
12349;BME280;5974;42.710;27.258;2023-08-06T01:25:08;98895.19;;;22.82;100.00
12349;BME280;5974;42.710;27.258;2023-08-06T01:27:40;98890.50;;;22.84;100.00
12349;BME280;5974;42.710;27.258;2023-08-06T01:30:12;98889.50;;;22.77;100.00
12349;BME280;5974;42.710;27.258;2023-08-06T01:32:44;98857.72;;;22.59;100.00
12349;BME280;5974;42.710;27.258;2023-08-06T01:35:14;98874.38;;;22.69;100.00
12349;BME280;5974;42.710;27.258;2023-08-06T01:37:43;98859.88;;;22.55;100.00
12349;BME280;5974;42.710;27.258;2023-08-06T01:40:11;98865.91;;;22.65;100.00
12349;BME280;5974;42.710;27.258;2023-08-06T01:42:38;98864.38;;;22.47;100.00
12349;BME280;5974;42.710;27.258;2023-08-06T01:45:06;98865.72;;;22.43;100.00
12349;BME280;5974;42.710;27.258;2023-08-06T01:47:34;98855.75;;;22.29;100.00
12349;BME280;5974;42.710;27.258;2023-08-06T01:50:01;98862.22;;;22.34;100.00
12349;BME280;5974;42.710;27.258;2023-08-06T01:52:28;98856.06;;;22.34;100.00
12349;BME280;5974;42.710;27.258;2023-08-06T01:54:56;98866.88;;;22.24;100.00
12349;BME280;5974;42.710;27.258;2023-08-06T01:57:23;98852.91;;;22.22;100.00
12349;BME280;5974;42.710;27.258;2023-08-06T01:59:50;98858.09;;;22.24;100.00
12349;BME280;5974;42.710;27.258;2023-08-06T02:02:17;98855.25;;;22.25;100.00
12349;BME280;5974;42.710;27.258;2023-08-06T02:04:44;98849.59;;;22.28;100.00
12349;BME280;5974;42.710;27.258;2023-08-06T02:07:11;98851.75;;;22.25;100.00
12349;BME280;5974;42.710;27.258;2023-08-06T02:09:37;98855.09;;;22.27;100.00
12349;BME280;5974;42.710;27.258;2023-08-06T02:12:07;98864.91;;;22.26;100.00
12349;BME280;5974;42.710;27.258;2023-08-06T02:14:34;98866.75;;;22.26;100.00
12349;BME280;5974;42.710;27.258;2023-08-06T02:17:01;98869.75;;;22.23;100.00
12349;BME280;5974;42.710;27.258;2023-08-06T02:19:28;98874.88;;;22.24;100.00
12349;BME280;5974;42.710;27.258;2023-08-06T02:21:55;98877.22;;;22.27;100.00
12349;BME280;5974;42.710;27.258;2023-08-06T02:24:22;98884.53;;;22.25;100.00
12349;BME280;5974;42.710;27.258;2023-08-06T02:26:49;98873.56;;;22.36;100.00
12349;BME280;5974;42.710;27.258;2023-08-06T02:29:18;98869.06;;;22.37;100.00
12349;BME280;5974;42.710;27.258;2023-08-06T02:31:45;98867.72;;;22.41;100.00
12349;BME280;5974;42.710;27.258;2023-08-06T02:34:12;98877.22;;;22.43;100.00
12349;BME280;5974;42.710;27.258;2023-08-06T02:36:38;98834.94;;;22.24;100.00
12349;BME280;5974;42.710;27.258;2023-08-06T02:39:05;98874.06;;;22.48;100.00
12349;BME280;5974;42.710;27.258;2023-08-06T02:41:32;98868.03;;;22.46;100.00
12349;BME280;5974;42.710;27.258;2023-08-06T02:43:59;98865.72;;;22.59;100.00
12349;BME280;5974;42.710;27.258;2023-08-06T02:46:27;98867.38;;;22.44;100.00
12349;BME280;5974;42.710;27.258;2023-08-06T02:48:54;98860.38;;;22.43;100.00
12349;BME280;5974;42.710;27.258;2023-08-06T02:51:21;98860.75;;;22.32;100.00
12349;BME280;5974;42.710;27.258;2023-08-06T02:53:48;98860.72;;;22.40;100.00
12349;BME280;5974;42.710;27.258;2023-08-06T02:56:15;98850.41;;;22.37;100.00
12349;BME280;5974;42.710;27.258;2023-08-06T02:58:42;98866.88;;;22.40;100.00
12349;BME280;5974;42.710;27.258;2023-08-06T03:01:09;98871.03;;;22.43;100.00
12349;BME280;5974;42.710;27.258;2023-08-06T03:03:37;98873.91;;;22.33;100.00
12349;BME280;5974;42.710;27.258;2023-08-06T03:06:04;98875.88;;;22.31;100.00
12349;BME280;5974;42.710;27.258;2023-08-06T03:08:31;98871.88;;;22.43;100.00
12349;BME280;5974;42.710;27.258;2023-08-06T03:10:57;98849.09;;;22.25;100.00
12349;BME280;5974;42.710;27.258;2023-08-06T03:13:23;98879.72;;;22.45;100.00
12349;BME280;5974;42.710;27.258;2023-08-06T03:15:54;98884.38;;;22.51;100.00
12349;BME280;5974;42.710;27.258;2023-08-06T03:18:21;98832.94;;;22.34;100.00
12349;BME280;5974;42.710;27.258;2023-08-06T03:20:49;98864.56;;;22.45;100.00
12349;BME280;5974;42.710;27.258;2023-08-06T03:23:16;98875.56;;;22.66;100.00
12349;BME280;5974;42.710;27.258;2023-08-06T03:25:43;98875.19;;;22.61;100.00
12349;BME280;5974;42.710;27.258;2023-08-06T03:28:10;98876.34;;;22.83;100.00
12349;BME280;5974;42.710;27.258;2023-08-06T03:30:37;98869.66;;;22.95;100.00
12349;BME280;5974;42.710;27.258;2023-08-06T03:33:04;98861.50;;;22.97;100.00
12349;BME280;5974;42.710;27.258;2023-08-06T03:35:31;98860.97;;;23.09;100.00
12349;BME280;5974;42.710;27.258;2023-08-06T03:37:59;98848.50;;;22.94;100.00
12349;BME280;5974;42.710;27.258;2023-08-06T03:40:26;98857.31;;;23.02;100.00
12349;BME280;5974;42.710;27.258;2023-08-06T03:42:53;98854.59;;;23.18;100.00
12349;BME280;5974;42.710;27.258;2023-08-06T03:45:20;98853.56;;;23.19;100.00
12349;BME280;5974;42.710;27.258;2023-08-06T03:47:47;98853.34;;;23.29;100.00
12349;BME280;5974;42.710;27.258;2023-08-06T03:50:14;98841.34;;;23.33;100.00
12349;BME280;5974;42.710;27.258;2023-08-06T03:52:41;98841.59;;;23.54;100.00
12349;BME280;5974;42.710;27.258;2023-08-06T03:55:09;98838.28;;;23.52;100.00
12349;BME280;5974;42.710;27.258;2023-08-06T03:57:36;98829.34;;;23.68;100.00
12349;BME280;5974;42.710;27.258;2023-08-06T04:00:03;98826.78;;;23.97;100.00
12349;BME280;5974;42.710;27.258;2023-08-06T04:02:30;98790.47;;;23.88;100.00
12349;BME280;5974;42.710;27.258;2023-08-06T04:04:57;98819.16;;;24.17;100.00
12349;BME280;5974;42.710;27.258;2023-08-06T04:07:24;98820.38;;;24.29;100.00
12349;BME280;5974;42.710;27.258;2023-08-06T04:09:55;98803.25;;;24.38;100.00
12349;BME280;5974;42.710;27.258;2023-08-06T04:12:23;98804.41;;;24.73;100.00
12349;BME280;5974;42.710;27.258;2023-08-06T04:14:50;98789.25;;;24.80;100.00
12349;BME280;5974;42.710;27.258;2023-08-06T04:17:17;98783.88;;;25.24;100.00
12349;BME280;5974;42.710;27.258;2023-08-06T04:19:46;98792.31;;;25.78;100.00
12349;BME280;5974;42.710;27.258;2023-08-06T04:22:14;98762.94;;;26.68;100.00
12349;BME280;5974;42.710;27.258;2023-08-06T04:24:41;98766.44;;;27.50;100.00
12349;BME280;5974;42.710;27.258;2023-08-06T04:27:08;98752.00;;;27.97;100.00
12349;BME280;5974;42.710;27.258;2023-08-06T04:29:37;98760.06;;;28.76;100.00
12349;BME280;5974;42.710;27.258;2023-08-06T04:32:06;98756.84;;;29.49;100.00
12349;BME280;5974;42.710;27.258;2023-08-06T04:34:33;98753.03;;;31.17;100.00
12349;BME280;5974;42.710;27.258;2023-08-06T04:37:01;98740.31;;;31.06;100.00
12349;BME280;5974;42.710;27.258;2023-08-06T04:39:27;98714.22;;;30.45;100.00
12349;BME280;5974;42.710;27.258;2023-08-06T04:41:55;98740.91;;;30.29;100.00
12349;BME280;5974;42.710;27.258;2023-08-06T04:44:22;98743.53;;;31.14;100.00
12349;BME280;5974;42.710;27.258;2023-08-06T04:46:50;98727.22;;;31.92;100.00
12349;BME280;5974;42.710;27.258;2023-08-06T04:49:17;98722.31;;;32.12;100.00
12349;BME280;5974;42.710;27.258;2023-08-06T04:51:44;98721.69;;;32.80;100.00
12349;BME280;5974;42.710;27.258;2023-08-06T04:54:11;98720.63;;;33.61;100.00
12349;BME280;5974;42.710;27.258;2023-08-06T04:56:38;98722.94;;;32.14;100.00
12349;BME280;5974;42.710;27.258;2023-08-06T04:59:05;98725.28;;;31.28;100.00
12349;BME280;5974;42.710;27.258;2023-08-06T05:01:32;98729.13;;;30.48;100.00
12349;BME280;5974;42.710;27.258;2023-08-06T05:04:00;98728.88;;;30.49;100.00
12349;BME280;5974;42.710;27.258;2023-08-06T05:06:27;98719.06;;;30.12;100.00
12349;BME280;5974;42.710;27.258;2023-08-06T05:08:54;98711.69;;;30.01;100.00
12349;BME280;5974;42.710;27.258;2023-08-06T05:11:21;98718.16;;;30.18;100.00
12349;BME280;5974;42.710;27.258;2023-08-06T05:13:49;98715.13;;;30.15;100.00
12349;BME280;5974;42.710;27.258;2023-08-06T05:16:16;98722.84;;;29.48;100.00
12349;BME280;5974;42.710;27.258;2023-08-06T05:18:43;98719.28;;;29.17;100.00
12349;BME280;5974;42.710;27.258;2023-08-06T05:21:11;98721.16;;;28.65;100.00
12349;BME280;5974;42.710;27.258;2023-08-06T05:23:38;98717.84;;;28.50;100.00
12349;BME280;5974;42.710;27.258;2023-08-06T05:26:05;98718.94;;;28.42;100.00
12349;BME280;5974;42.710;27.258;2023-08-06T05:28:31;98707.63;;;29.92;100.00
12349;BME280;5974;42.710;27.258;2023-08-06T05:30:58;98708.66;;;30.58;100.00
12349;BME280;5974;42.710;27.258;2023-08-06T05:33:25;98702.03;;;30.36;100.00
12349;BME280;5974;42.710;27.258;2023-08-06T05:35:52;98697.41;;;32.97;100.00
12349;BME280;5974;42.710;27.258;2023-08-06T05:38:20;98698.28;;;33.14;100.00
12349;BME280;5974;42.710;27.258;2023-08-06T05:40:47;98695.72;;;35.98;98.89
12349;BME280;5974;42.710;27.258;2023-08-06T05:43:14;98701.00;;;34.20;99.71
12349;BME280;5974;42.710;27.258;2023-08-06T05:45:44;98691.13;;;33.36;100.00
12349;BME280;5974;42.710;27.258;2023-08-06T05:48:11;98697.63;;;34.13;100.00
12349;BME280;5974;42.710;27.258;2023-08-06T05:50:38;98705.59;;;33.87;100.00
12349;BME280;5974;42.710;27.258;2023-08-06T05:53:05;98700.47;;;32.89;100.00
12349;BME280;5974;42.710;27.258;2023-08-06T05:55:33;98703.22;;;31.43;100.00
12349;BME280;5974;42.710;27.258;2023-08-06T05:58:01;98694.47;;;31.29;100.00
12349;BME280;5974;42.710;27.258;2023-08-06T06:00:27;98693.94;;;31.09;100.00
12349;BME280;5974;42.710;27.258;2023-08-06T06:02:54;98668.03;;;30.72;100.00
12349;BME280;5974;42.710;27.258;2023-08-06T06:05:21;98709.34;;;30.72;100.00
12349;BME280;5974;42.710;27.258;2023-08-06T06:07:48;98714.25;;;30.93;100.00
12349;BME280;5974;42.710;27.258;2023-08-06T06:10:15;98707.38;;;30.18;100.00
12349;BME280;5974;42.710;27.258;2023-08-06T06:12:43;98706.84;;;30.52;100.00
12349;BME280;5974;42.710;27.258;2023-08-06T06:15:10;98684.63;;;31.64;100.00
12349;BME280;5974;42.710;27.258;2023-08-06T06:17:37;98702.28;;;32.71;100.00
12349;BME280;5974;42.710;27.258;2023-08-06T06:20:05;98696.75;;;31.97;100.00
12349;BME280;5974;42.710;27.258;2023-08-06T06:22:32;98705.41;;;32.17;100.00
12349;BME280;5974;42.710;27.258;2023-08-06T06:24:59;98723.94;;;33.51;100.00
12349;BME280;5974;42.710;27.258;2023-08-06T06:27:26;98712.53;;;34.11;100.00
12349;BME280;5974;42.710;27.258;2023-08-06T06:29:54;98719.97;;;35.67;94.76
12349;BME280;5974;42.710;27.258;2023-08-06T06:32:21;98722.72;;;34.59;95.25
12349;BME280;5974;42.710;27.258;2023-08-06T06:34:48;98722.88;;;34.52;100.00
12349;BME280;5974;42.710;27.258;2023-08-06T06:37:15;98720.00;;;36.93;86.38
12349;BME280;5974;42.710;27.258;2023-08-06T06:39:42;98716.41;;;37.50;79.63
12349;BME280;5974;42.710;27.258;2023-08-06T06:42:10;98723.66;;;37.14;75.70
12349;BME280;5974;42.710;27.258;2023-08-06T06:44:36;98722.41;;;38.27;73.92
12349;BME280;5974;42.710;27.258;2023-08-06T06:47:05;98704.66;;;38.40;73.49
12349;BME280;5974;42.710;27.258;2023-08-06T06:49:32;98724.88;;;38.49;69.47
12349;BME280;5974;42.710;27.258;2023-08-06T06:51:59;98716.19;;;41.04;62.86
12349;BME280;5974;42.710;27.258;2023-08-06T06:54:25;98718.50;;;39.38;61.02
12349;BME280;5974;42.710;27.258;2023-08-06T06:56:52;98723.44;;;41.37;58.23
12349;BME280;5974;42.710;27.258;2023-08-06T06:59:19;98712.09;;;40.25;58.87
12349;BME280;5974;42.710;27.258;2023-08-06T07:01:46;98707.53;;;40.16;59.29
12349;BME280;5974;42.710;27.258;2023-08-06T07:04:14;98712.31;;;43.26;53.42
12349;BME280;5974;42.710;27.258;2023-08-06T07:06:41;98702.63;;;42.20;52.33
12349;BME280;5974;42.710;27.258;2023-08-06T07:09:08;98702.03;;;41.34;53.80
12349;BME280;5974;42.710;27.258;2023-08-06T07:11:35;98699.75;;;43.34;50.56
12349;BME280;5974;42.710;27.258;2023-08-06T07:14:02;98692.91;;;42.68;50.48
12349;BME280;5974;42.710;27.258;2023-08-06T07:16:29;98702.59;;;42.79;51.23
12349;BME280;5974;42.710;27.258;2023-08-06T07:18:56;98711.53;;;41.79;51.81
12349;BME280;5974;42.710;27.258;2023-08-06T07:21:24;98706.16;;;42.66;50.18
12349;BME280;5974;42.710;27.258;2023-08-06T07:23:51;98714.47;;;42.47;49.53
12349;BME280;5974;42.710;27.258;2023-08-06T07:26:18;98711.84;;;42.70;48.97
12349;BME280;5974;42.710;27.258;2023-08-06T07:28:44;98715.00;;;42.90;49.49
12349;BME280;5974;42.710;27.258;2023-08-06T07:31:11;98715.06;;;43.40;48.07
12349;BME280;5974;42.710;27.258;2023-08-06T07:33:38;98715.81;;;47.12;41.87
12349;BME280;5974;42.710;27.258;2023-08-06T07:36:09;98718.16;;;42.84;45.71
12349;BME280;5974;42.710;27.258;2023-08-06T07:38:38;98705.13;;;42.76;46.16
12349;BME280;5974;42.710;27.258;2023-08-06T07:41:04;98698.91;;;44.44;44.99
12349;BME280;5974;42.710;27.258;2023-08-06T07:43:31;98693.69;;;41.95;48.44
12349;BME280;5974;42.710;27.258;2023-08-06T07:45:58;98688.47;;;42.40;49.41
12349;BME280;5974;42.710;27.258;2023-08-06T07:48:26;98697.97;;;46.72;42.65
12349;BME280;5974;42.710;27.258;2023-08-06T07:50:53;98692.53;;;45.22;42.57
12349;BME280;5974;42.710;27.258;2023-08-06T07:53:20;98685.28;;;43.64;44.42
12349;BME280;5974;42.710;27.258;2023-08-06T07:55:50;98679.34;;;42.85;44.35
12349;BME280;5974;42.710;27.258;2023-08-06T07:58:17;98676.78;;;41.88;44.86
12349;BME280;5974;42.710;27.258;2023-08-06T08:00:44;98685.56;;;38.35;52.12
12349;BME280;5974;42.710;27.258;2023-08-06T08:03:11;98672.63;;;36.47;55.72
12349;BME280;5974;42.710;27.258;2023-08-06T08:05:39;98686.75;;;36.96;57.35
12349;BME280;5974;42.710;27.258;2023-08-06T08:08:06;98704.19;;;36.43;55.49
12349;BME280;5974;42.710;27.258;2023-08-06T08:10:33;98690.06;;;36.46;56.18
12349;BME280;5974;42.710;27.258;2023-08-06T08:13:01;98690.47;;;36.23;57.43
12349;BME280;5974;42.710;27.258;2023-08-06T08:15:29;98700.34;;;36.86;56.28
12349;BME280;5974;42.710;27.258;2023-08-06T08:17:56;98702.44;;;37.36;54.10
12349;BME280;5974;42.710;27.258;2023-08-06T08:20:23;98691.50;;;37.26;56.25
12349;BME280;5974;42.710;27.258;2023-08-06T08:22:50;98683.72;;;35.35;57.90
12349;BME280;5974;42.710;27.258;2023-08-06T08:25:17;98679.38;;;34.47;60.88
12349;BME280;5974;42.710;27.258;2023-08-06T08:27:44;98676.97;;;34.29;63.96
12349;BME280;5974;42.710;27.258;2023-08-06T08:30:12;98672.47;;;34.78;63.56
12349;BME280;5974;42.710;27.258;2023-08-06T08:32:39;98666.69;;;35.18;60.79
12349;BME280;5974;42.710;27.258;2023-08-06T08:35:06;98658.13;;;35.31;62.85
12349;BME280;5974;42.710;27.258;2023-08-06T08:37:33;98656.31;;;35.42;61.95
12349;BME280;5974;42.710;27.258;2023-08-06T08:40:00;98670.88;;;35.04;60.22
12349;BME280;5974;42.710;27.258;2023-08-06T08:42:27;98647.16;;;34.99;60.67
12349;BME280;5974;42.710;27.258;2023-08-06T08:44:54;98652.25;;;34.91;59.25
12349;BME280;5974;42.710;27.258;2023-08-06T08:47:24;98647.34;;;34.93;58.90
12349;BME280;5974;42.710;27.258;2023-08-06T08:49:52;98650.09;;;35.46;57.81
12349;BME280;5974;42.710;27.258;2023-08-06T08:52:21;98647.91;;;36.12;56.08
12349;BME280;5974;42.710;27.258;2023-08-06T08:54:48;98633.91;;;35.29;55.81
12349;BME280;5974;42.710;27.258;2023-08-06T08:57:18;98633.88;;;35.03;56.10
12349;BME280;5974;42.710;27.258;2023-08-06T08:59:45;98631.63;;;34.95;56.21
12349;BME280;5974;42.710;27.258;2023-08-06T09:02:13;98616.88;;;35.71;56.21
12349;BME280;5974;42.710;27.258;2023-08-06T09:04:44;98605.56;;;35.89;54.39
12349;BME280;5974;42.710;27.258;2023-08-06T09:07:13;98608.97;;;35.69;54.52
12349;BME280;5974;42.710;27.258;2023-08-06T09:09:43;98597.47;;;34.55;55.44
12349;BME280;5974;42.710;27.258;2023-08-06T09:12:15;98582.56;;;35.38;55.84
12349;BME280;5974;42.710;27.258;2023-08-06T09:14:42;98578.06;;;35.49;56.18
12349;BME280;5974;42.710;27.258;2023-08-06T09:17:09;98581.31;;;35.51;54.95
12349;BME280;5974;42.710;27.258;2023-08-06T09:19:37;98583.03;;;35.99;55.40
12349;BME280;5974;42.710;27.258;2023-08-06T09:22:05;98580.72;;;36.84;51.33
12349;BME280;5974;42.710;27.258;2023-08-06T09:24:38;98577.78;;;36.24;53.99
12349;BME280;5974;42.710;27.258;2023-08-06T09:27:10;98573.16;;;36.34;53.39
12349;BME280;5974;42.710;27.258;2023-08-06T09:29:40;98575.59;;;37.08;54.05
12349;BME280;5974;42.710;27.258;2023-08-06T09:32:07;98576.97;;;37.16;51.09
12349;BME280;5974;42.710;27.258;2023-08-06T09:34:34;98580.63;;;36.59;52.90
12349;BME280;5974;42.710;27.258;2023-08-06T09:37:04;98579.91;;;36.22;53.09
12349;BME280;5974;42.710;27.258;2023-08-06T09:39:31;98563.22;;;36.70;51.71
12349;BME280;5974;42.710;27.258;2023-08-06T09:41:59;98562.66;;;36.58;52.98
12349;BME280;5974;42.710;27.258;2023-08-06T09:44:27;98528.91;;;36.89;51.12
12349;BME280;5974;42.710;27.258;2023-08-06T09:46:56;98540.63;;;36.80;51.55
12349;BME280;5974;42.710;27.258;2023-08-06T09:49:26;98542.44;;;36.49;49.74
12349;BME280;5974;42.710;27.258;2023-08-06T09:51:53;98543.41;;;37.40;49.08
12349;BME280;5974;42.710;27.258;2023-08-06T09:54:23;98538.50;;;37.42;48.62
12349;BME280;5974;42.710;27.258;2023-08-06T09:56:52;98531.97;;;37.23;47.79
12349;BME280;5974;42.710;27.258;2023-08-06T09:59:19;98540.13;;;37.13;49.36
12349;BME280;5974;42.710;27.258;2023-08-06T10:01:46;98529.69;;;35.98;49.16
12349;BME280;5974;42.710;27.258;2023-08-06T10:04:14;98520.34;;;35.42;49.83
12349;BME280;5974;42.710;27.258;2023-08-06T10:06:46;98530.41;;;35.41;50.52
12349;BME280;5974;42.710;27.258;2023-08-06T10:09:13;98514.56;;;35.33;51.40
12349;BME280;5974;42.710;27.258;2023-08-06T10:11:42;98519.72;;;35.29;51.46
12349;BME280;5974;42.710;27.258;2023-08-06T10:14:12;98509.03;;;35.18;51.54
12349;BME280;5974;42.710;27.258;2023-08-06T10:16:40;98513.31;;;35.09;51.17
12349;BME280;5974;42.710;27.258;2023-08-06T10:19:10;98494.75;;;35.74;50.77
12349;BME280;5974;42.710;27.258;2023-08-06T10:21:38;98497.94;;;36.13;50.12
12349;BME280;5974;42.710;27.258;2023-08-06T10:24:07;98504.41;;;35.55;51.28
12349;BME280;5974;42.710;27.258;2023-08-06T10:26:36;98488.66;;;35.57;49.59
12349;BME280;5974;42.710;27.258;2023-08-06T10:29:37;98482.28;;;35.83;49.89
12349;BME280;5974;42.710;27.258;2023-08-06T10:32:04;98511.00;;;35.59;50.25
12349;BME280;5974;42.710;27.258;2023-08-06T10:34:54;98530.44;;;35.88;49.49
12349;BME280;5974;42.710;27.258;2023-08-06T10:37:21;98499.84;;;35.61;50.49
12349;BME280;5974;42.710;27.258;2023-08-06T10:39:49;98480.28;;;35.27;51.74
12349;BME280;5974;42.710;27.258;2023-08-06T10:42:27;98521.25;;;34.40;53.52
12349;BME280;5974;42.710;27.258;2023-08-06T10:45:16;98607.41;;;33.23;57.30
12349;BME280;5974;42.710;27.258;2023-08-06T10:47:43;98651.38;;;31.99;65.35
12349;BME280;5974;42.710;27.258;2023-08-06T10:50:12;98711.50;;;27.79;100.00
12349;BME280;5974;42.710;27.258;2023-08-06T10:52:39;98765.78;;;24.90;100.00
12349;BME280;5974;42.710;27.258;2023-08-06T10:55:06;98742.13;;;23.83;100.00
12349;BME280;5974;42.710;27.258;2023-08-06T10:57:34;98759.28;;;23.35;100.00
12349;BME280;5974;42.710;27.258;2023-08-06T11:00:03;98738.78;;;22.74;100.00
12349;BME280;5974;42.710;27.258;2023-08-06T11:02:34;98744.69;;;22.37;100.00
12349;BME280;5974;42.710;27.258;2023-08-06T11:05:05;98783.63;;;22.46;100.00
12349;BME280;5974;42.710;27.258;2023-08-06T11:07:32;98779.91;;;22.80;100.00
12349;BME280;5974;42.710;27.258;2023-08-06T11:10:03;98730.22;;;22.87;100.00
12349;BME280;5974;42.710;27.258;2023-08-06T11:12:31;98756.03;;;23.25;100.00
12349;BME280;5974;42.710;27.258;2023-08-06T11:14:58;98729.38;;;23.25;100.00
12349;BME280;5974;42.710;27.258;2023-08-06T11:17:24;98732.53;;;23.74;100.00
12349;BME280;5974;42.710;27.258;2023-08-06T11:19:53;98758.16;;;23.83;100.00
12349;BME280;5974;42.710;27.258;2023-08-06T11:22:20;98754.19;;;24.16;100.00
12349;BME280;5974;42.710;27.258;2023-08-06T11:24:48;98774.94;;;24.14;100.00
12349;BME280;5974;42.710;27.258;2023-08-06T11:27:15;98766.69;;;24.39;100.00
12349;BME280;5974;42.710;27.258;2023-08-06T11:29:43;98762.72;;;24.49;100.00
12349;BME280;5974;42.710;27.258;2023-08-06T11:32:10;98751.66;;;24.52;100.00
12349;BME280;5974;42.710;27.258;2023-08-06T11:34:38;98735.59;;;24.96;100.00
12349;BME280;5974;42.710;27.258;2023-08-06T11:37:08;98701.63;;;25.68;100.00
12349;BME280;5974;42.710;27.258;2023-08-06T11:39:36;98691.88;;;25.88;100.00
12349;BME280;5974;42.710;27.258;2023-08-06T11:42:04;98683.28;;;25.93;100.00
12349;BME280;5974;42.710;27.258;2023-08-06T11:44:32;98638.41;;;26.02;100.00
12349;BME280;5974;42.710;27.258;2023-08-06T11:46:59;98617.88;;;27.76;100.00
12349;BME280;5974;42.710;27.258;2023-08-06T11:49:38;98627.56;;;27.24;100.00
12349;BME280;5974;42.710;27.258;2023-08-06T11:52:13;98616.63;;;27.32;100.00
12349;BME280;5974;42.710;27.258;2023-08-06T11:54:40;98552.56;;;27.82;100.00
12349;BME280;5974;42.710;27.258;2023-08-06T11:57:07;98602.81;;;27.62;100.00
12349;BME280;5974;42.710;27.258;2023-08-06T11:59:34;98614.97;;;27.38;100.00
12349;BME280;5974;42.710;27.258;2023-08-06T12:02:04;98598.47;;;27.87;100.00
12349;BME280;5974;42.710;27.258;2023-08-06T12:04:31;98616.63;;;28.05;100.00
12349;BME280;5974;42.710;27.258;2023-08-06T12:07:05;98622.44;;;27.69;100.00
12349;BME280;5974;42.710;27.258;2023-08-06T12:09:34;98627.56;;;27.24;100.00
12349;BME280;5974;42.710;27.258;2023-08-06T12:12:04;98626.53;;;27.38;100.00
12349;BME280;5974;42.710;27.258;2023-08-06T12:14:31;98636.91;;;27.48;100.00
12349;BME280;5974;42.710;27.258;2023-08-06T12:16:57;98646.00;;;27.80;100.00
12349;BME280;5974;42.710;27.258;2023-08-06T12:19:25;98643.69;;;27.37;100.00
12349;BME280;5974;42.710;27.258;2023-08-06T12:21:52;98651.75;;;28.03;100.00
12349;BME280;5974;42.710;27.258;2023-08-06T12:24:19;98660.38;;;28.44;100.00
12349;BME280;5974;42.710;27.258;2023-08-06T12:26:47;98658.22;;;28.73;100.00
12349;BME280;5974;42.710;27.258;2023-08-06T12:29:14;98606.78;;;28.36;100.00
12349;BME280;5974;42.710;27.258;2023-08-06T12:31:41;98673.00;;;28.95;100.00
12349;BME280;5974;42.710;27.258;2023-08-06T12:34:08;98666.66;;;29.27;100.00
12349;BME280;5974;42.710;27.258;2023-08-06T12:36:35;98670.69;;;29.05;100.00
12349;BME280;5974;42.710;27.258;2023-08-06T12:39:02;98681.44;;;29.05;100.00
12349;BME280;5974;42.710;27.258;2023-08-06T12:41:29;98680.53;;;29.18;100.00
12349;BME280;5974;42.710;27.258;2023-08-06T12:43:57;98687.53;;;28.94;100.00
12349;BME280;5974;42.710;27.258;2023-08-06T12:46:24;98700.00;;;29.26;100.00
12349;BME280;5974;42.710;27.258;2023-08-06T12:48:51;98696.13;;;29.09;100.00
12349;BME280;5974;42.710;27.258;2023-08-06T12:51:18;98698.03;;;29.02;100.00
12349;BME280;5974;42.710;27.258;2023-08-06T12:53:45;98717.19;;;28.61;100.00
12349;BME280;5974;42.710;27.258;2023-08-06T12:56:12;98706.78;;;28.91;100.00